»·PEaware :: N256Z KRNO-KCEC

N256Z :: KRNO-KCEC

FLIGHT INFORMATION

Flight Status: Arrived
Operator: Privately registered:
United States
More flights under this callsign
Pilot: Gregory A. (9731)
Aircraft: PIPER PA-46-500TP MALIBU MERIDIAN
(P46T)
More flights by this aircraft type
Origin: KRNO Reno/Tahoe Intl
United States
Destination: KCEC McNamara
United States
More flights between these airports :: More routes between these airports
Route: FMG8 FMG RDD CEC
File this flight plan on PilotEdge
Remarks:
Altitude:
(Current/Filed)
260ft
Speed:
(Current/Filed)
250kts
Departed: 01-Sep-19 08:16 AM
Arrived: 01-Sep-19 09:41 AM
Distance/Time
Traveled:
245nm/1:25
Distance/Time
To Go:
Arrived

Flight Plot

Page will automatically refresh every two minutes.

Flight plan parsing failed; only flown route is shown


Map Options




Map Legend


Flown Route
Filed Route
Departure Airport
Arrival Airport
Navaid (VOR, NDB)
Fix

Horizontal Profiles

Position Reports

Time Latitude Longitude Heading Altitude Ground
Speed
01-Sep-19 07:51 39.499088 -119.772686 179 4419ft 0kts
01-Sep-19 07:52 39.499085 -119.772686 179 4419ft 0kts
01-Sep-19 07:53 39.499082 -119.772686 179 4419ft 0kts
01-Sep-19 07:54 39.499079 -119.772686 179 4419ft 0kts
01-Sep-19 07:55 39.499076 -119.772686 179 4419ft 0kts
01-Sep-19 07:56 39.499074 -119.772686 179 4419ft 0kts
01-Sep-19 07:57 39.499071 -119.772686 179 4419ft 0kts
01-Sep-19 07:58 39.499069 -119.772686 179 4419ft 0kts
01-Sep-19 07:59 39.499066 -119.772686 179 4419ft 0kts
01-Sep-19 08:00 39.499063 -119.772686 179 4419ft 0kts
01-Sep-19 08:01 39.499060 -119.772686 179 4419ft 0kts
01-Sep-19 08:02 39.499058 -119.772686 179 4419ft 0kts
01-Sep-19 08:03 39.499055 -119.772686 179 4419ft 0kts
01-Sep-19 08:04 39.499052 -119.772686 179 4419ft 0kts
01-Sep-19 08:05 39.499049 -119.772686 179 4419ft 0kts
01-Sep-19 08:06 39.499047 -119.772686 179 4419ft 0kts
01-Sep-19 08:07 39.499045 -119.772686 178 4419ft 0kts
01-Sep-19 08:08 39.499042 -119.772686 178 4419ft 0kts
01-Sep-19 08:09 39.500612 -119.771500 359 4419ft 18kts
01-Sep-19 08:10 39.506574 -119.771516 359 4419ft 23kts
01-Sep-19 08:11 39.513050 -119.771420 358 4419ft 16kts
01-Sep-19 08:12 39.513790 -119.770314 88 4419ft 0kts
01-Sep-19 08:13 39.513791 -119.770311 88 4419ft 0kts
01-Sep-19 08:14 39.511431 -119.769231 180 4419ft 35kts
01-Sep-19 08:15 39.481774 -119.768717 180 5192ft 152kts
01-Sep-19 08:16 39.433597 -119.765356 149 6846ft 192kts
01-Sep-19 08:17 39.446344 -119.717650 10 8856ft 186kts
01-Sep-19 08:18 39.494968 -119.694825 34 10858ft 191kts
01-Sep-19 08:19 39.539733 -119.670898 329 12903ft 186kts
01-Sep-19 08:20 39.564207 -119.718170 273 14900ft 166kts
01-Sep-19 08:21 39.580990 -119.782049 289 16968ft 203kts
01-Sep-19 08:22 39.598382 -119.829667 291 18393ft 203kts
01-Sep-19 08:23 39.623019 -119.894771 292 20383ft 199kts
01-Sep-19 08:24 39.647497 -119.958933 292 22387ft 201kts
01-Sep-19 08:25 39.672138 -120.023695 292 24386ft 201kts
01-Sep-19 08:26 39.696319 -120.087252 291 26187ft 200kts
01-Sep-19 08:27 39.724220 -120.161042 292 26342ft 246kts
01-Sep-19 08:28 39.755084 -120.242263 292 26345ft 254kts
01-Sep-19 08:29 39.786339 -120.324866 292 26338ft 255kts
01-Sep-19 08:30 39.817702 -120.408095 292 26330ft 256kts
01-Sep-19 08:31 39.848896 -120.491154 292 26321ft 256kts
01-Sep-19 08:32 39.880059 -120.574385 292 26312ft 256kts
01-Sep-19 08:33 39.911337 -120.658158 292 26291ft 256kts
01-Sep-19 08:34 39.942492 -120.741844 292 26237ft 258kts
01-Sep-19 08:35 39.973961 -120.826634 292 26211ft 260kts
01-Sep-19 08:36 40.005149 -120.910843 292 26206ft 256kts
01-Sep-19 08:37 40.035903 -120.994137 292 26196ft 254kts
01-Sep-19 08:38 40.066556 -121.077424 292 26185ft 254kts
01-Sep-19 08:39 40.097070 -121.160533 292 26168ft 254kts
01-Sep-19 08:40 40.127561 -121.243821 292 26147ft 254kts
01-Sep-19 08:41 40.158125 -121.327587 293 26132ft 255kts
01-Sep-19 08:42 40.188750 -121.411767 293 26115ft 257kts
01-Sep-19 08:43 40.219288 -121.495892 293 26071ft 254kts
01-Sep-19 08:44 40.249461 -121.579261 293 26062ft 253kts
01-Sep-19 08:45 40.279562 -121.662660 293 26054ft 253kts
01-Sep-19 08:46 40.309939 -121.747087 293 26042ft 257kts
01-Sep-19 08:47 40.340173 -121.831250 293 26033ft 255kts
01-Sep-19 08:48 40.370187 -121.915195 293 26028ft 254kts
01-Sep-19 08:49 40.400253 -121.999426 293 26020ft 254kts
01-Sep-19 08:50 40.430073 -122.083172 293 26017ft 253kts
01-Sep-19 08:51 40.459941 -122.167198 292 26014ft 253kts
01-Sep-19 08:52 40.489677 -122.250787 292 26011ft 252kts
01-Sep-19 08:53 40.529589 -122.326895 306 26011ft 254kts
01-Sep-19 08:54 40.575635 -122.397907 308 26016ft 254kts
01-Sep-19 08:55 40.622098 -122.467709 308 26036ft 253kts
01-Sep-19 08:56 40.668477 -122.537065 308 26069ft 252kts
01-Sep-19 08:57 40.714891 -122.606506 307 26102ft 251kts
01-Sep-19 08:58 40.761047 -122.675684 307 26126ft 251kts
01-Sep-19 08:59 40.807263 -122.745086 307 26140ft 251kts
01-Sep-19 09:00 40.853197 -122.814246 307 26145ft 250kts
01-Sep-19 09:01 40.899022 -122.883393 307 26146ft 250kts
01-Sep-19 09:02 40.945181 -122.953228 306 25874ft 251kts
01-Sep-19 09:03 40.989728 -123.020586 306 25265ft 237kts
01-Sep-19 09:04 41.033314 -123.084904 308 24619ft 233kts
01-Sep-19 09:05 41.076832 -123.144107 309 23302ft 223kts
01-Sep-19 09:06 41.120392 -123.203156 309 21709ft 225kts
01-Sep-19 09:07 41.163421 -123.264391 303 20107ft 226kts
01-Sep-19 09:08 41.202691 -123.330310 303 18511ft 229kts
01-Sep-19 09:09 41.238563 -123.392941 300 16908ft 194kts
01-Sep-19 09:10 41.265528 -123.450415 290 15302ft 176kts
01-Sep-19 09:11 41.287916 -123.508275 292 13707ft 176kts
01-Sep-19 09:12 41.311718 -123.565804 293 12108ft 177kts
01-Sep-19 09:13 41.333514 -123.624808 292 10513ft 180kts
01-Sep-19 09:14 41.353451 -123.685408 292 8938ft 167kts
01-Sep-19 09:15 41.369267 -123.736762 291 8148ft 126kts
01-Sep-19 09:16 41.383057 -123.783537 292 8171ft 144kts
01-Sep-19 09:17 41.399623 -123.834864 294 8161ft 149kts
01-Sep-19 09:18 41.417042 -123.884469 296 8162ft 147kts
01-Sep-19 09:19 41.434515 -123.933647 297 8161ft 147kts
01-Sep-19 09:20 41.453153 -123.982177 298 8162ft 147kts
01-Sep-19 09:21 41.467155 -124.034025 288 7966ft 158kts
01-Sep-19 09:23 41.480173 -124.093544 285 7199ft 173kts
01-Sep-19 09:24 41.489716 -124.156772 278 6405ft 175kts
01-Sep-19 09:25 41.499991 -124.215636 327 6079ft 154kts
01-Sep-19 09:26 41.538929 -124.242040 327 5437ft 158kts
01-Sep-19 09:27 41.574611 -124.275077 331 4773ft 154kts
01-Sep-19 09:28 41.613224 -124.294476 6 4099ft 146kts
01-Sep-19 09:29 41.635086 -124.255775 95 3433ft 148kts
01-Sep-19 09:30 41.604654 -124.225898 204 2766ft 161kts
01-Sep-19 09:31 41.565003 -124.245958 190 2543ft 141kts
01-Sep-19 09:32 41.538577 -124.275434 269 2551ft 134kts
01-Sep-19 09:33 41.559283 -124.310101 349 2556ft 127kts
01-Sep-19 09:34 41.592384 -124.296160 12 2552ft 127kts
01-Sep-19 09:35 41.627988 -124.286247 12 2266ft 141kts
01-Sep-19 09:36 41.666484 -124.274145 12 1752ft 134kts
01-Sep-19 09:37 41.700123 -124.263516 11 1450ft 105kts
01-Sep-19 09:37 41.722527 -124.256482 10 869ft 98kts
01-Sep-19 09:39 41.752725 -124.246948 9 356ft 87kts
01-Sep-19 09:40 41.776775 -124.239203 9 61ft 67kts
01-Sep-19 09:40 41.781936 -124.239834 316 61ft 17kts
01-Sep-19 09:41 41.779410 -124.236244 132 61ft 31kts
01-Sep-19 09:43 41.777431 -124.234868 317 61ft 0kts
01-Sep-19 09:43 41.777431 -124.234868 317 61ft 0kts

Navigation Log

Ident Type
Flight plan parsing failed, navigation log unavailable